sensor_id;sensor_type;location;lat;lon;timestamp;P1;durP1;ratioP1;P2;durP2;ratioP2
49824;SDS011;35714;55.708;37.478;2022-08-24T00:00:38;12.00;;;3.78;;
49824;SDS011;35714;55.708;37.478;2022-08-24T00:03:04;9.88;;;3.58;;
49824;SDS011;35714;55.708;37.478;2022-08-24T00:05:31;10.48;;;4.22;;
49824;SDS011;35714;55.708;37.478;2022-08-24T00:07:57;5.05;;;3.10;;
49824;SDS011;35714;55.708;37.478;2022-08-24T00:10:23;7.05;;;3.50;;
49824;SDS011;35714;55.708;37.478;2022-08-24T00:12:48;6.68;;;3.22;;
49824;SDS011;35714;55.708;37.478;2022-08-24T00:15:15;9.35;;;3.95;;
49824;SDS011;35714;55.708;37.478;2022-08-24T00:17:41;7.55;;;3.70;;
49824;SDS011;35714;55.708;37.478;2022-08-24T00:20:07;11.40;;;3.63;;
49824;SDS011;35714;55.708;37.478;2022-08-24T00:22:34;9.63;;;3.40;;
49824;SDS011;35714;55.708;37.478;2022-08-24T00:25:00;7.60;;;3.50;;
49824;SDS011;35714;55.708;37.478;2022-08-24T00:27:25;6.90;;;3.78;;
49824;SDS011;35714;55.708;37.478;2022-08-24T00:29:51;7.95;;;3.40;;
49824;SDS011;35714;55.708;37.478;2022-08-24T00:32:17;7.15;;;3.78;;
49824;SDS011;35714;55.708;37.478;2022-08-24T00:34:42;7.75;;;3.78;;
49824;SDS011;35714;55.708;37.478;2022-08-24T00:37:09;12.48;;;3.97;;
49824;SDS011;35714;55.708;37.478;2022-08-24T00:39:34;10.43;;;2.97;;
49824;SDS011;35714;55.708;37.478;2022-08-24T00:42:00;8.80;;;3.60;;
49824;SDS011;35714;55.708;37.478;2022-08-24T00:44:25;5.88;;;3.40;;
49824;SDS011;35714;55.708;37.478;2022-08-24T00:47:01;11.02;;;4.15;;
49824;SDS011;35714;55.708;37.478;2022-08-24T00:49:32;7.80;;;3.60;;
49824;SDS011;35714;55.708;37.478;2022-08-24T00:52:19;9.95;;;3.63;;
49824;SDS011;35714;55.708;37.478;2022-08-24T00:54:46;8.40;;;3.58;;
49824;SDS011;35714;55.708;37.478;2022-08-24T00:57:12;9.25;;;3.35;;
49824;SDS011;35714;55.708;37.478;2022-08-24T00:59:41;6.78;;;3.13;;
49824;SDS011;35714;55.708;37.478;2022-08-24T01:02:09;8.55;;;4.35;;
49824;SDS011;35714;55.708;37.478;2022-08-24T01:04:44;6.18;;;3.72;;
49824;SDS011;35714;55.708;37.478;2022-08-24T01:07:11;7.38;;;3.30;;
49824;SDS011;35714;55.708;37.478;2022-08-24T01:09:37;10.60;;;3.40;;
49824;SDS011;35714;55.708;37.478;2022-08-24T01:12:03;5.95;;;3.00;;
49824;SDS011;35714;55.708;37.478;2022-08-24T01:14:28;7.72;;;3.47;;
49824;SDS011;35714;55.708;37.478;2022-08-24T01:16:55;9.07;;;3.53;;
49824;SDS011;35714;55.708;37.478;2022-08-24T01:19:43;12.45;;;3.42;;
49824;SDS011;35714;55.708;37.478;2022-08-24T01:24:53;7.40;;;3.40;;
49824;SDS011;35714;55.708;37.478;2022-08-24T01:27:18;8.48;;;3.78;;
49824;SDS011;35714;55.708;37.478;2022-08-24T01:29:44;8.68;;;3.78;;
49824;SDS011;35714;55.708;37.478;2022-08-24T01:32:11;6.40;;;3.53;;
49824;SDS011;35714;55.708;37.478;2022-08-24T01:34:36;8.75;;;4.00;;
49824;SDS011;35714;55.708;37.478;2022-08-24T01:37:03;12.63;;;3.67;;
49824;SDS011;35714;55.708;37.478;2022-08-24T01:39:30;7.13;;;3.58;;
49824;SDS011;35714;55.708;37.478;2022-08-24T01:41:57;10.02;;;4.03;;
49824;SDS011;35714;55.708;37.478;2022-08-24T01:44:23;9.68;;;4.18;;
49824;SDS011;35714;55.708;37.478;2022-08-24T01:46:50;10.05;;;3.72;;
49824;SDS011;35714;55.708;37.478;2022-08-24T01:49:21;10.75;;;3.75;;
49824;SDS011;35714;55.708;37.478;2022-08-24T01:51:47;7.20;;;3.33;;
49824;SDS011;35714;55.708;37.478;2022-08-24T01:54:14;6.95;;;3.40;;
49824;SDS011;35714;55.708;37.478;2022-08-24T01:56:40;10.18;;;3.45;;
49824;SDS011;35714;55.708;37.478;2022-08-24T01:59:05;10.48;;;3.85;;
49824;SDS011;35714;55.708;37.478;2022-08-24T02:01:34;7.90;;;3.60;;
49824;SDS011;35714;55.708;37.478;2022-08-24T02:04:00;10.30;;;3.60;;
49824;SDS011;35714;55.708;37.478;2022-08-24T02:06:27;12.95;;;3.90;;
49824;SDS011;35714;55.708;37.478;2022-08-24T02:08:53;8.88;;;3.85;;
49824;SDS011;35714;55.708;37.478;2022-08-24T02:11:19;7.07;;;3.63;;
49824;SDS011;35714;55.708;37.478;2022-08-24T02:13:45;6.78;;;3.25;;
49824;SDS011;35714;55.708;37.478;2022-08-24T02:16:11;5.68;;;3.30;;
49824;SDS011;35714;55.708;37.478;2022-08-24T02:18:38;5.82;;;3.15;;
49824;SDS011;35714;55.708;37.478;2022-08-24T02:21:08;7.80;;;3.80;;
49824;SDS011;35714;55.708;37.478;2022-08-24T02:23:34;6.30;;;3.35;;
49824;SDS011;35714;55.708;37.478;2022-08-24T02:26:01;8.30;;;4.22;;
49824;SDS011;35714;55.708;37.478;2022-08-24T02:28:27;8.48;;;4.25;;
49824;SDS011;35714;55.708;37.478;2022-08-24T02:30:53;10.07;;;4.75;;
49824;SDS011;35714;55.708;37.478;2022-08-24T02:33:19;9.40;;;4.07;;
49824;SDS011;35714;55.708;37.478;2022-08-24T02:35:45;6.63;;;4.13;;
49824;SDS011;35714;55.708;37.478;2022-08-24T02:38:10;6.07;;;3.85;;
49824;SDS011;35714;55.708;37.478;2022-08-24T02:40:37;9.10;;;3.92;;
49824;SDS011;35714;55.708;37.478;2022-08-24T02:43:03;13.18;;;4.65;;
49824;SDS011;35714;55.708;37.478;2022-08-24T02:45:30;9.25;;;4.35;;
49824;SDS011;35714;55.708;37.478;2022-08-24T02:47:56;10.70;;;4.50;;
49824;SDS011;35714;55.708;37.478;2022-08-24T02:50:23;12.18;;;5.00;;
49824;SDS011;35714;55.708;37.478;2022-08-24T02:52:50;7.53;;;3.83;;
49824;SDS011;35714;55.708;37.478;2022-08-24T02:55:16;7.40;;;4.75;;
49824;SDS011;35714;55.708;37.478;2022-08-24T02:57:42;12.18;;;4.38;;
49824;SDS011;35714;55.708;37.478;2022-08-24T03:00:10;9.68;;;4.60;;
49824;SDS011;35714;55.708;37.478;2022-08-24T03:02:38;8.85;;;4.75;;
49824;SDS011;35714;55.708;37.478;2022-08-24T03:05:04;10.50;;;4.68;;
49824;SDS011;35714;55.708;37.478;2022-08-24T03:07:30;10.45;;;5.43;;
49824;SDS011;35714;55.708;37.478;2022-08-24T03:09:55;10.20;;;5.45;;
49824;SDS011;35714;55.708;37.478;2022-08-24T03:12:21;11.18;;;4.50;;
49824;SDS011;35714;55.708;37.478;2022-08-24T03:14:47;9.25;;;4.85;;
49824;SDS011;35714;55.708;37.478;2022-08-24T03:17:14;15.68;;;5.72;;
49824;SDS011;35714;55.708;37.478;2022-08-24T03:19:39;10.15;;;4.88;;
49824;SDS011;35714;55.708;37.478;2022-08-24T03:22:07;11.07;;;4.65;;
49824;SDS011;35714;55.708;37.478;2022-08-24T03:24:32;11.93;;;6.07;;
49824;SDS011;35714;55.708;37.478;2022-08-24T03:26:58;8.82;;;4.90;;
49824;SDS011;35714;55.708;37.478;2022-08-24T03:29:25;15.48;;;4.97;;
49824;SDS011;35714;55.708;37.478;2022-08-24T03:31:50;12.90;;;5.63;;
49824;SDS011;35714;55.708;37.478;2022-08-24T03:34:16;9.98;;;5.32;;
49824;SDS011;35714;55.708;37.478;2022-08-24T03:36:44;12.00;;;6.25;;
49824;SDS011;35714;55.708;37.478;2022-08-24T03:39:14;8.40;;;4.90;;
49824;SDS011;35714;55.708;37.478;2022-08-24T03:41:40;9.93;;;5.38;;
49824;SDS011;35714;55.708;37.478;2022-08-24T03:44:05;12.35;;;6.07;;
49824;SDS011;35714;55.708;37.478;2022-08-24T03:46:33;8.82;;;5.40;;
49824;SDS011;35714;55.708;37.478;2022-08-24T03:49:01;11.80;;;6.07;;
49824;SDS011;35714;55.708;37.478;2022-08-24T03:51:28;12.55;;;6.00;;
49824;SDS011;35714;55.708;37.478;2022-08-24T03:53:55;11.55;;;6.07;;
49824;SDS011;35714;55.708;37.478;2022-08-24T03:56:23;10.50;;;5.75;;
49824;SDS011;35714;55.708;37.478;2022-08-24T03:58:49;11.70;;;5.90;;
49824;SDS011;35714;55.708;37.478;2022-08-24T04:01:15;12.18;;;6.35;;
49824;SDS011;35714;55.708;37.478;2022-08-24T04:03:42;11.73;;;6.20;;
49824;SDS011;35714;55.708;37.478;2022-08-24T04:06:09;11.18;;;6.07;;
49824;SDS011;35714;55.708;37.478;2022-08-24T04:08:35;15.60;;;5.95;;
49824;SDS011;35714;55.708;37.478;2022-08-24T04:11:02;14.43;;;6.25;;
49824;SDS011;35714;55.708;37.478;2022-08-24T04:13:28;10.32;;;5.88;;
49824;SDS011;35714;55.708;37.478;2022-08-24T04:16:03;12.45;;;5.75;;
49824;SDS011;35714;55.708;37.478;2022-08-24T04:18:28;15.35;;;6.60;;
49824;SDS011;35714;55.708;37.478;2022-08-24T04:20:54;9.43;;;5.30;;
49824;SDS011;35714;55.708;37.478;2022-08-24T04:23:20;15.23;;;5.68;;
49824;SDS011;35714;55.708;37.478;2022-08-24T04:25:46;41.90;;;28.30;;
49824;SDS011;35714;55.708;37.478;2022-08-24T04:28:13;16.25;;;9.70;;
49824;SDS011;35714;55.708;37.478;2022-08-24T04:30:40;29.75;;;14.63;;
49824;SDS011;35714;55.708;37.478;2022-08-24T04:33:08;19.77;;;9.10;;
49824;SDS011;35714;55.708;37.478;2022-08-24T04:35:36;19.48;;;9.38;;
49824;SDS011;35714;55.708;37.478;2022-08-24T04:38:02;12.93;;;7.75;;
49824;SDS011;35714;55.708;37.478;2022-08-24T04:40:28;11.02;;;5.85;;
49824;SDS011;35714;55.708;37.478;2022-08-24T04:42:54;11.15;;;6.32;;
49824;SDS011;35714;55.708;37.478;2022-08-24T04:45:19;15.50;;;6.68;;
49824;SDS011;35714;55.708;37.478;2022-08-24T04:47:45;13.57;;;6.65;;
49824;SDS011;35714;55.708;37.478;2022-08-24T04:50:11;11.27;;;6.20;;
49824;SDS011;35714;55.708;37.478;2022-08-24T04:52:37;18.23;;;5.68;;
49824;SDS011;35714;55.708;37.478;2022-08-24T04:55:02;13.80;;;6.03;;
49824;SDS011;35714;55.708;37.478;2022-08-24T04:57:28;13.45;;;5.47;;
49824;SDS011;35714;55.708;37.478;2022-08-24T04:59:55;15.60;;;6.22;;
49824;SDS011;35714;55.708;37.478;2022-08-24T05:02:22;12.15;;;4.85;;
49824;SDS011;35714;55.708;37.478;2022-08-24T05:04:51;10.25;;;5.10;;
49824;SDS011;35714;55.708;37.478;2022-08-24T05:07:17;10.00;;;5.00;;
49824;SDS011;35714;55.708;37.478;2022-08-24T05:09:43;21.92;;;13.07;;
49824;SDS011;35714;55.708;37.478;2022-08-24T05:12:09;14.85;;;8.35;;
49824;SDS011;35714;55.708;37.478;2022-08-24T05:14:38;15.85;;;7.07;;
49824;SDS011;35714;55.708;37.478;2022-08-24T05:17:04;17.27;;;9.05;;
49824;SDS011;35714;55.708;37.478;2022-08-24T05:19:30;14.23;;;8.32;;
49824;SDS011;35714;55.708;37.478;2022-08-24T05:21:56;9.85;;;6.53;;
49824;SDS011;35714;55.708;37.478;2022-08-24T05:24:22;16.13;;;5.57;;
49824;SDS011;35714;55.708;37.478;2022-08-24T05:26:47;12.50;;;5.15;;
49824;SDS011;35714;55.708;37.478;2022-08-24T05:29:13;7.90;;;4.68;;
49824;SDS011;35714;55.708;37.478;2022-08-24T05:31:44;17.45;;;5.47;;
49824;SDS011;35714;55.708;37.478;2022-08-24T05:34:11;16.67;;;5.30;;
49824;SDS011;35714;55.708;37.478;2022-08-24T05:36:38;13.50;;;4.82;;
49824;SDS011;35714;55.708;37.478;2022-08-24T05:39:07;11.23;;;4.80;;
49824;SDS011;35714;55.708;37.478;2022-08-24T05:41:33;11.15;;;3.97;;
49824;SDS011;35714;55.708;37.478;2022-08-24T05:44:08;8.63;;;4.72;;
49824;SDS011;35714;55.708;37.478;2022-08-24T05:46:34;8.57;;;4.82;;
49824;SDS011;35714;55.708;37.478;2022-08-24T05:48:59;15.15;;;5.13;;
49824;SDS011;35714;55.708;37.478;2022-08-24T05:51:32;13.13;;;4.47;;
49824;SDS011;35714;55.708;37.478;2022-08-24T05:54:08;12.13;;;4.40;;
49824;SDS011;35714;55.708;37.478;2022-08-24T05:56:52;14.88;;;5.20;;
49824;SDS011;35714;55.708;37.478;2022-08-24T05:59:19;9.50;;;4.45;;
49824;SDS011;35714;55.708;37.478;2022-08-24T06:01:45;9.43;;;5.20;;
49824;SDS011;35714;55.708;37.478;2022-08-24T06:04:11;12.27;;;4.43;;
49824;SDS011;35714;55.708;37.478;2022-08-24T06:06:38;13.68;;;4.70;;
49824;SDS011;35714;55.708;37.478;2022-08-24T06:09:09;15.02;;;4.35;;
49824;SDS011;35714;55.708;37.478;2022-08-24T06:11:36;13.07;;;4.85;;
49824;SDS011;35714;55.708;37.478;2022-08-24T06:14:05;9.65;;;4.47;;
49824;SDS011;35714;55.708;37.478;2022-08-24T06:16:36;17.73;;;4.63;;
49824;SDS011;35714;55.708;37.478;2022-08-24T06:19:02;15.10;;;4.50;;
49824;SDS011;35714;55.708;37.478;2022-08-24T06:21:28;15.48;;;4.70;;
49824;SDS011;35714;55.708;37.478;2022-08-24T06:23:56;9.20;;;3.80;;
49824;SDS011;35714;55.708;37.478;2022-08-24T06:26:21;9.40;;;4.00;;
49824;SDS011;35714;55.708;37.478;2022-08-24T06:29:06;8.60;;;3.67;;
49824;SDS011;35714;55.708;37.478;2022-08-24T06:31:36;9.77;;;4.22;;
49824;SDS011;35714;55.708;37.478;2022-08-24T06:34:03;13.73;;;4.38;;
49824;SDS011;35714;55.708;37.478;2022-08-24T06:36:28;10.38;;;4.22;;
49824;SDS011;35714;55.708;37.478;2022-08-24T06:38:54;11.55;;;3.97;;
49824;SDS011;35714;55.708;37.478;2022-08-24T06:41:20;16.92;;;4.50;;
49824;SDS011;35714;55.708;37.478;2022-08-24T06:43:46;12.63;;;4.65;;
49824;SDS011;35714;55.708;37.478;2022-08-24T06:46:13;13.40;;;3.88;;
49824;SDS011;35714;55.708;37.478;2022-08-24T06:48:41;15.50;;;4.88;;
49824;SDS011;35714;55.708;37.478;2022-08-24T06:51:15;9.85;;;4.40;;
49824;SDS011;35714;55.708;37.478;2022-08-24T06:53:41;9.10;;;3.55;;
49824;SDS011;35714;55.708;37.478;2022-08-24T06:56:07;10.15;;;3.67;;
49824;SDS011;35714;55.708;37.478;2022-08-24T06:58:33;11.05;;;4.20;;
49824;SDS011;35714;55.708;37.478;2022-08-24T07:01:22;8.80;;;3.65;;
49824;SDS011;35714;55.708;37.478;2022-08-24T07:03:49;10.00;;;4.30;;
49824;SDS011;35714;55.708;37.478;2022-08-24T07:06:33;12.90;;;3.95;;
49824;SDS011;35714;55.708;37.478;2022-08-24T07:08:59;10.30;;;4.45;;
49824;SDS011;35714;55.708;37.478;2022-08-24T07:11:25;12.27;;;4.55;;
49824;SDS011;35714;55.708;37.478;2022-08-24T07:13:51;10.30;;;3.40;;
49824;SDS011;35714;55.708;37.478;2022-08-24T07:16:18;9.18;;;3.17;;
49824;SDS011;35714;55.708;37.478;2022-08-24T07:18:45;8.50;;;3.20;;
49824;SDS011;35714;55.708;37.478;2022-08-24T07:21:11;6.22;;;2.40;;
49824;SDS011;35714;55.708;37.478;2022-08-24T07:23:48;4.50;;;2.40;;
49824;SDS011;35714;55.708;37.478;2022-08-24T07:26:19;7.13;;;2.78;;
49824;SDS011;35714;55.708;37.478;2022-08-24T07:28:47;9.93;;;2.05;;
49824;SDS011;35714;55.708;37.478;2022-08-24T07:31:12;6.32;;;2.35;;
49824;SDS011;35714;55.708;37.478;2022-08-24T07:33:49;6.20;;;2.30;;
49824;SDS011;35714;55.708;37.478;2022-08-24T07:36:15;4.80;;;2.17;;
49824;SDS011;35714;55.708;37.478;2022-08-24T07:38:42;10.02;;;2.67;;
49824;SDS011;35714;55.708;37.478;2022-08-24T07:41:07;5.68;;;2.10;;
49824;SDS011;35714;55.708;37.478;2022-08-24T07:43:33;5.25;;;2.25;;
49824;SDS011;35714;55.708;37.478;2022-08-24T07:45:59;6.88;;;2.55;;
49824;SDS011;35714;55.708;37.478;2022-08-24T07:48:25;4.07;;;2.15;;
49824;SDS011;35714;55.708;37.478;2022-08-24T07:50:54;5.10;;;2.28;;
49824;SDS011;35714;55.708;37.478;2022-08-24T07:53:20;7.68;;;2.25;;
49824;SDS011;35714;55.708;37.478;2022-08-24T07:55:55;10.50;;;2.50;;
49824;SDS011;35714;55.708;37.478;2022-08-24T07:58:22;4.93;;;2.28;;
49824;SDS011;35714;55.708;37.478;2022-08-24T08:00:49;6.43;;;2.20;;
49824;SDS011;35714;55.708;37.478;2022-08-24T08:03:15;8.40;;;2.78;;
49824;SDS011;35714;55.708;37.478;2022-08-24T08:05:42;9.80;;;4.15;;
49824;SDS011;35714;55.708;37.478;2022-08-24T08:08:08;5.70;;;2.40;;
49824;SDS011;35714;55.708;37.478;2022-08-24T08:10:34;8.73;;;2.08;;
49824;SDS011;35714;55.708;37.478;2022-08-24T08:13:04;7.03;;;2.40;;
49824;SDS011;35714;55.708;37.478;2022-08-24T08:15:31;7.78;;;2.42;;
49824;SDS011;35714;55.708;37.478;2022-08-24T08:18:06;4.70;;;2.30;;
49824;SDS011;35714;55.708;37.478;2022-08-24T08:20:35;5.40;;;2.28;;
49824;SDS011;35714;55.708;37.478;2022-08-24T08:23:01;7.93;;;2.10;;
49824;SDS011;35714;55.708;37.478;2022-08-24T08:25:49;5.20;;;2.05;;
49824;SDS011;35714;55.708;37.478;2022-08-24T08:28:23;12.57;;;2.22;;
49824;SDS011;35714;55.708;37.478;2022-08-24T08:30:49;6.45;;;2.10;;
49824;SDS011;35714;55.708;37.478;2022-08-24T08:33:14;4.75;;;2.00;;
49824;SDS011;35714;55.708;37.478;2022-08-24T08:35:40;6.38;;;2.05;;
49824;SDS011;35714;55.708;37.478;2022-08-24T08:38:06;9.80;;;2.20;;
49824;SDS011;35714;55.708;37.478;2022-08-24T08:45:53;5.60;;;2.10;;
49824;SDS011;35714;55.708;37.478;2022-08-24T08:56:54;9.68;;;2.22;;
49824;SDS011;35714;55.708;37.478;2022-08-24T09:07:37;4.03;;;1.50;;
49824;SDS011;35714;55.708;37.478;2022-08-24T09:15:09;4.53;;;1.55;;
49824;SDS011;35714;55.708;37.478;2022-08-24T09:17:56;6.35;;;1.45;;
49824;SDS011;35714;55.708;37.478;2022-08-24T09:25:52;5.22;;;1.65;;
49824;SDS011;35714;55.708;37.478;2022-08-24T09:28:40;6.30;;;1.73;;
49824;SDS011;35714;55.708;37.478;2022-08-24T09:31:19;9.00;;;1.75;;
49824;SDS011;35714;55.708;37.478;2022-08-24T09:33:54;3.00;;;1.25;;
49824;SDS011;35714;55.708;37.478;2022-08-24T09:36:36;4.95;;;1.88;;
49824;SDS011;35714;55.708;37.478;2022-08-24T09:44:25;5.53;;;2.03;;
49824;SDS011;35714;55.708;37.478;2022-08-24T10:00:14;5.00;;;1.70;;
49824;SDS011;35714;55.708;37.478;2022-08-24T10:16:16;5.28;;;1.98;;
49824;SDS011;35714;55.708;37.478;2022-08-24T10:18:58;5.97;;;1.30;;
49824;SDS011;35714;55.708;37.478;2022-08-24T10:21:35;3.58;;;1.35;;
49824;SDS011;35714;55.708;37.478;2022-08-24T10:32:17;2.97;;;1.05;;
49824;SDS011;35714;55.708;37.478;2022-08-24T10:42:42;7.95;;;1.50;;
49824;SDS011;35714;55.708;37.478;2022-08-24T10:50:42;3.83;;;1.38;;
49824;SDS011;35714;55.708;37.478;2022-08-24T10:53:27;7.18;;;1.58;;
49824;SDS011;35714;55.708;37.478;2022-08-24T10:56:07;4.13;;;1.42;;
49824;SDS011;35714;55.708;37.478;2022-08-24T11:06:18;4.10;;;1.20;;
49824;SDS011;35714;55.708;37.478;2022-08-24T11:08:55;4.80;;;1.50;;
49824;SDS011;35714;55.708;37.478;2022-08-24T11:11:33;3.88;;;1.10;;
49824;SDS011;35714;55.708;37.478;2022-08-24T11:14:01;7.03;;;1.55;;
49824;SDS011;35714;55.708;37.478;2022-08-24T11:16:32;6.90;;;1.30;;
49824;SDS011;35714;55.708;37.478;2022-08-24T11:18:59;4.20;;;1.27;;
49824;SDS011;35714;55.708;37.478;2022-08-24T11:21:42;3.63;;;1.20;;
49824;SDS011;35714;55.708;37.478;2022-08-24T11:24:22;2.90;;;1.10;;
49824;SDS011;35714;55.708;37.478;2022-08-24T11:26:56;4.55;;;1.40;;
49824;SDS011;35714;55.708;37.478;2022-08-24T11:30:07;4.95;;;1.42;;
49824;SDS011;35714;55.708;37.478;2022-08-24T11:32:08;4.50;;;1.33;;
49824;SDS011;35714;55.708;37.478;2022-08-24T11:34:35;4.43;;;1.30;;
49824;SDS011;35714;55.708;37.478;2022-08-24T11:37:01;3.47;;;1.35;;
49824;SDS011;35714;55.708;37.478;2022-08-24T11:39:34;4.68;;;1.30;;
49824;SDS011;35714;55.708;37.478;2022-08-24T11:44:46;5.90;;;1.33;;
49824;SDS011;35714;55.708;37.478;2022-08-24T11:52:51;4.55;;;1.50;;
49824;SDS011;35714;55.708;37.478;2022-08-24T11:55:30;4.20;;;1.30;;
49824;SDS011;35714;55.708;37.478;2022-08-24T12:00:46;6.80;;;1.50;;
49824;SDS011;35714;55.708;37.478;2022-08-24T12:05:49;5.40;;;1.30;;
49824;SDS011;35714;55.708;37.478;2022-08-24T12:08:22;5.55;;;1.50;;
49824;SDS011;35714;55.708;37.478;2022-08-24T12:15:47;4.95;;;1.00;;
49824;SDS011;35714;55.708;37.478;2022-08-24T12:20:48;5.28;;;1.27;;
49824;SDS011;35714;55.708;37.478;2022-08-24T12:26:00;3.58;;;1.00;;
49824;SDS011;35714;55.708;37.478;2022-08-24T12:28:45;4.82;;;1.40;;
49824;SDS011;35714;55.708;37.478;2022-08-24T12:31:17;10.23;;;5.22;;
49824;SDS011;35714;55.708;37.478;2022-08-24T12:33:46;3.90;;;1.42;;
49824;SDS011;35714;55.708;37.478;2022-08-24T12:36:17;7.03;;;1.58;;
49824;SDS011;35714;55.708;37.478;2022-08-24T12:38:47;5.45;;;1.30;;
49824;SDS011;35714;55.708;37.478;2022-08-24T12:41:52;6.47;;;1.35;;
49824;SDS011;35714;55.708;37.478;2022-08-24T12:44:09;4.32;;;1.27;;
49824;SDS011;35714;55.708;37.478;2022-08-24T12:46:36;7.10;;;1.40;;
49824;SDS011;35714;55.708;37.478;2022-08-24T12:49:07;7.93;;;1.50;;
49824;SDS011;35714;55.708;37.478;2022-08-24T12:56:54;4.45;;;1.38;;
49824;SDS011;35714;55.708;37.478;2022-08-24T12:59:30;3.97;;;1.25;;
49824;SDS011;35714;55.708;37.478;2022-08-24T13:02:03;5.55;;;1.40;;
49824;SDS011;35714;55.708;37.478;2022-08-24T13:06:59;6.40;;;1.60;;
49824;SDS011;35714;55.708;37.478;2022-08-24T13:11:51;7.55;;;1.48;;
49824;SDS011;35714;55.708;37.478;2022-08-24T13:19:14;2.67;;;1.25;;
49824;SDS011;35714;55.708;37.478;2022-08-24T13:21:41;5.72;;;1.35;;
49824;SDS011;35714;55.708;37.478;2022-08-24T13:26:53;7.07;;;1.70;;
49824;SDS011;35714;55.708;37.478;2022-08-24T13:29:27;7.68;;;1.85;;
49824;SDS011;35714;55.708;37.478;2022-08-24T13:31:53;6.05;;;1.30;;
49824;SDS011;35714;55.708;37.478;2022-08-24T13:37:09;5.90;;;1.50;;
49824;SDS011;35714;55.708;37.478;2022-08-24T13:42:09;4.50;;;1.27;;
49824;SDS011;35714;55.708;37.478;2022-08-24T13:52:45;5.85;;;1.17;;
49824;SDS011;35714;55.708;37.478;2022-08-24T14:00:04;5.25;;;1.92;;
49824;SDS011;35714;55.708;37.478;2022-08-24T14:02:38;4.95;;;1.70;;
49824;SDS011;35714;55.708;37.478;2022-08-24T14:08:15;8.35;;;1.05;;
49824;SDS011;35714;55.708;37.478;2022-08-24T14:10:58;6.80;;;1.75;;
49824;SDS011;35714;55.708;37.478;2022-08-24T14:19:05;4.75;;;1.35;;
49824;SDS011;35714;55.708;37.478;2022-08-24T14:27:12;3.35;;;1.08;;
49824;SDS011;35714;55.708;37.478;2022-08-24T14:29:54;2.70;;;0.70;;
49824;SDS011;35714;55.708;37.478;2022-08-24T14:32:42;5.47;;;1.05;;
49824;SDS011;35714;55.708;37.478;2022-08-24T14:35:16;5.00;;;1.20;;
49824;SDS011;35714;55.708;37.478;2022-08-24T14:37:49;4.03;;;1.40;;
49824;SDS011;35714;55.708;37.478;2022-08-24T14:45:33;2.70;;;0.98;;
49824;SDS011;35714;55.708;37.478;2022-08-24T14:48:04;3.08;;;1.10;;
49824;SDS011;35714;55.708;37.478;2022-08-24T14:55:54;3.90;;;0.90;;
49824;SDS011;35714;55.708;37.478;2022-08-24T15:06:19;3.97;;;1.27;;
49824;SDS011;35714;55.708;37.478;2022-08-24T15:08:46;4.90;;;1.20;;
49824;SDS011;35714;55.708;37.478;2022-08-24T15:11:13;4.22;;;1.05;;
49824;SDS011;35714;55.708;37.478;2022-08-24T15:19:28;5.05;;;1.38;;
49824;SDS011;35714;55.708;37.478;2022-08-24T15:21:44;3.53;;;1.85;;
49824;SDS011;35714;55.708;37.478;2022-08-24T15:29:29;5.38;;;1.30;;
49824;SDS011;35714;55.708;37.478;2022-08-24T15:32:06;7.30;;;2.05;;
49824;SDS011;35714;55.708;37.478;2022-08-24T15:34:37;4.13;;;2.30;;
49824;SDS011;35714;55.708;37.478;2022-08-24T15:37:04;10.45;;;2.00;;
49824;SDS011;35714;55.708;37.478;2022-08-24T15:39:29;4.95;;;2.40;;
49824;SDS011;35714;55.708;37.478;2022-08-24T15:41:55;12.32;;;2.35;;
49824;SDS011;35714;55.708;37.478;2022-08-24T15:44:22;8.82;;;1.65;;
49824;SDS011;35714;55.708;37.478;2022-08-24T15:46:48;8.30;;;2.40;;
49824;SDS011;35714;55.708;37.478;2022-08-24T15:49:25;3.55;;;1.10;;
49824;SDS011;35714;55.708;37.478;2022-08-24T15:52:06;4.50;;;1.42;;
49824;SDS011;35714;55.708;37.478;2022-08-24T15:54:44;5.80;;;1.63;;
49824;SDS011;35714;55.708;37.478;2022-08-24T15:59:50;5.57;;;2.03;;
49824;SDS011;35714;55.708;37.478;2022-08-24T16:02:23;4.13;;;1.40;;
49824;SDS011;35714;55.708;37.478;2022-08-24T16:07:28;5.38;;;1.50;;
49824;SDS011;35714;55.708;37.478;2022-08-24T16:10:10;9.77;;;1.60;;
49824;SDS011;35714;55.708;37.478;2022-08-24T16:12:36;5.18;;;1.80;;
49824;SDS011;35714;55.708;37.478;2022-08-24T16:15:07;9.07;;;1.73;;
49824;SDS011;35714;55.708;37.478;2022-08-24T16:17:40;3.63;;;1.85;;
49824;SDS011;35714;55.708;37.478;2022-08-24T16:23:00;5.65;;;2.00;;
49824;SDS011;35714;55.708;37.478;2022-08-24T16:25:35;6.32;;;1.85;;
49824;SDS011;35714;55.708;37.478;2022-08-24T16:35:59;7.65;;;2.25;;
49824;SDS011;35714;55.708;37.478;2022-08-24T16:38:28;7.72;;;1.85;;
49824;SDS011;35714;55.708;37.478;2022-08-24T16:41:00;7.93;;;1.92;;
49824;SDS011;35714;55.708;37.478;2022-08-24T16:43:27;14.70;;;2.40;;
49824;SDS011;35714;55.708;37.478;2022-08-24T16:45:53;10.48;;;3.35;;
49824;SDS011;35714;55.708;37.478;2022-08-24T16:48:19;12.57;;;2.50;;
49824;SDS011;35714;55.708;37.478;2022-08-24T16:50:45;10.60;;;3.00;;
49824;SDS011;35714;55.708;37.478;2022-08-24T16:53:11;12.27;;;3.70;;
49824;SDS011;35714;55.708;37.478;2022-08-24T16:55:37;8.98;;;3.20;;
49824;SDS011;35714;55.708;37.478;2022-08-24T16:58:03;16.08;;;2.95;;
49824;SDS011;35714;55.708;37.478;2022-08-24T17:00:29;9.23;;;2.42;;
49824;SDS011;35714;55.708;37.478;2022-08-24T17:02:54;12.75;;;2.95;;
49824;SDS011;35714;55.708;37.478;2022-08-24T17:05:20;17.30;;;4.13;;
49824;SDS011;35714;55.708;37.478;2022-08-24T17:07:46;12.30;;;3.90;;
49824;SDS011;35714;55.708;37.478;2022-08-24T17:10:13;19.52;;;3.38;;
49824;SDS011;35714;55.708;37.478;2022-08-24T17:12:39;18.02;;;4.28;;
49824;SDS011;35714;55.708;37.478;2022-08-24T17:15:07;19.42;;;5.63;;
49824;SDS011;35714;55.708;37.478;2022-08-24T17:17:33;19.13;;;5.03;;
49824;SDS011;35714;55.708;37.478;2022-08-24T17:20:00;11.82;;;5.15;;
49824;SDS011;35714;55.708;37.478;2022-08-24T17:22:28;11.32;;;4.05;;
49824;SDS011;35714;55.708;37.478;2022-08-24T17:24:55;13.38;;;3.83;;
49824;SDS011;35714;55.708;37.478;2022-08-24T17:27:22;13.55;;;2.92;;
49824;SDS011;35714;55.708;37.478;2022-08-24T17:29:51;9.98;;;3.72;;
49824;SDS011;35714;55.708;37.478;2022-08-24T17:32:17;12.68;;;3.33;;
49824;SDS011;35714;55.708;37.478;2022-08-24T17:34:42;16.63;;;3.85;;
49824;SDS011;35714;55.708;37.478;2022-08-24T17:37:08;11.00;;;3.35;;
49824;SDS011;35714;55.708;37.478;2022-08-24T17:39:34;13.05;;;3.58;;
49824;SDS011;35714;55.708;37.478;2022-08-24T17:42:00;15.38;;;3.97;;
49824;SDS011;35714;55.708;37.478;2022-08-24T17:44:28;13.27;;;3.80;;
49824;SDS011;35714;55.708;37.478;2022-08-24T17:46:55;23.42;;;3.95;;
49824;SDS011;35714;55.708;37.478;2022-08-24T17:49:22;24.67;;;3.85;;
49824;SDS011;35714;55.708;37.478;2022-08-24T17:51:48;18.23;;;3.92;;
49824;SDS011;35714;55.708;37.478;2022-08-24T17:54:14;27.85;;;4.25;;
49824;SDS011;35714;55.708;37.478;2022-08-24T17:56:40;20.27;;;4.80;;
49824;SDS011;35714;55.708;37.478;2022-08-24T17:59:06;10.80;;;3.78;;
49824;SDS011;35714;55.708;37.478;2022-08-24T18:01:44;13.32;;;3.38;;
49824;SDS011;35714;55.708;37.478;2022-08-24T18:04:10;12.60;;;3.78;;
49824;SDS011;35714;55.708;37.478;2022-08-24T18:06:36;13.20;;;4.28;;
49824;SDS011;35714;55.708;37.478;2022-08-24T18:09:03;16.05;;;4.65;;
49824;SDS011;35714;55.708;37.478;2022-08-24T18:11:30;12.98;;;4.00;;
49824;SDS011;35714;55.708;37.478;2022-08-24T18:13:55;14.63;;;4.28;;